Time;durP1;ratioP1;P1;durP2;ratioP2;P2;SDS_P1;SDS_P2;PMS_P1;PMS_P2;Temp;Humidity;BMP_temperature;BMP_pressure;BME280_temperature;BME280_humidity;BME280_pressure;Samples;Min_cycle;Max_cycle;Signal;HPM_P1;HPM_P2
2023/02/22 00:01:34;;;;;;;72.30;39.97;;;;;;;;;;4954439;29;20233;-82
2023/02/22 00:04:01;;;;;;;74.67;40.83;;;;;;;;;;4955451;28;20206;-82
2023/02/22 00:06:29;;;;;;;61.47;40.33;;;;;;;;;;4954128;29;20250;-81
2023/02/22 00:08:58;;;;;;;66.27;40.73;;;;;;;;;;4954854;28;20591;-82
2023/02/22 00:11:25;;;;;;;62.23;39.93;;;;;;;;;;4954139;28;20672;-81
2023/02/22 00:13:55;;;;;;;66.07;40.23;;;;;;;;;;4935643;29;20258;-81
2023/02/22 00:16:23;;;;;;;80.67;44.00;;;;;;;;;;4948440;28;20683;-81
2023/02/22 00:18:51;;;;;;;78.03;43.63;;;;;;;;;;4953904;28;20740;-82
2023/02/22 00:21:18;;;;;;;88.67;43.90;;;;;;;;;;4954775;29;20332;-82
2023/02/22 00:23:48;;;;;;;65.80;40.10;;;;;;;;;;4949597;29;20707;-81
2023/02/22 00:26:18;;;;;;;58.93;38.10;;;;;;;;;;4935648;29;20263;-81
2023/02/22 00:28:46;;;;;;;61.60;39.13;;;;;;;;;;4939236;28;20209;-82
2023/02/22 00:31:13;;;;;;;62.40;38.10;;;;;;;;;;4954097;28;20234;-82
2023/02/22 00:33:41;;;;;;;55.17;35.93;;;;;;;;;;4953650;28;20726;-82
2023/02/22 00:36:08;;;;;;;53.00;34.07;;;;;;;;;;4954189;29;20235;-81
2023/02/22 00:38:36;;;;;;;59.40;34.77;;;;;;;;;;4953652;28;20201;-81
2023/02/22 00:41:03;;;;;;;57.60;34.57;;;;;;;;;;4954161;29;20285;-81
2023/02/22 00:43:31;;;;;;;56.67;34.50;;;;;;;;;;4954418;29;20197;-81
2023/02/22 00:45:59;;;;;;;62.30;37.10;;;;;;;;;;4954096;29;20319;-81
2023/02/22 00:48:27;;;;;;;58.93;36.87;;;;;;;;;;4953796;29;20743;-82
2023/02/22 00:50:55;;;;;;;64.07;37.53;;;;;;;;;;4953536;29;20357;-82
2023/02/22 00:53:22;;;;;;;70.37;42.17;;;;;;;;;;4954909;29;20210;-81
2023/02/22 00:55:50;;;;;;;97.10;42.40;;;;;;;;;;4953984;29;20292;-81
2023/02/22 00:58:17;;;;;;;137.27;43.23;;;;;;;;;;4954564;29;20206;-81
2023/02/22 01:00:46;;;;;;;127.23;43.50;;;;;;;;;;4953408;29;20336;-81
2023/02/22 01:03:14;;;;;;;87.20;41.40;;;;;;;;;;4953750;28;20244;-81
2023/02/22 01:05:41;;;;;;;96.00;41.17;;;;;;;;;;4953859;29;20241;-82
2023/02/22 01:08:10;;;;;;;132.60;43.67;;;;;;;;;;4954003;29;20272;-81
2023/02/22 01:10:37;;;;;;;86.10;39.97;;;;;;;;;;4952817;29;20246;-81
2023/02/22 01:13:07;;;;;;;91.03;39.40;;;;;;;;;;4953880;28;20210;-80
2023/02/22 01:15:35;;;;;;;113.13;41.30;;;;;;;;;;4953570;28;20229;-81
2023/02/22 01:18:04;;;;;;;131.90;42.07;;;;;;;;;;4954029;28;20215;-81
2023/02/22 01:20:31;;;;;;;123.50;41.93;;;;;;;;;;4952908;28;20242;-81
2023/02/22 01:23:00;;;;;;;110.60;41.20;;;;;;;;;;4954689;28;20290;-81
2023/02/22 01:25:28;;;;;;;109.43;42.47;;;;;;;;;;4953676;28;20195;-80
2023/02/22 01:27:56;;;;;;;121.07;42.20;;;;;;;;;;4953673;29;20304;-80
2023/02/22 01:30:24;;;;;;;136.60;42.27;;;;;;;;;;4952926;28;20306;-81
2023/02/22 01:32:51;;;;;;;97.10;40.57;;;;;;;;;;4953831;28;20261;-81
2023/02/22 01:35:21;;;;;;;160.40;41.40;;;;;;;;;;4953272;29;20303;-81
2023/02/22 01:37:49;;;;;;;109.93;41.93;;;;;;;;;;4953872;29;20290;-81
2023/02/22 01:40:19;;;;;;;93.87;41.07;;;;;;;;;;4951996;29;20306;-80
2023/02/22 01:42:47;;;;;;;127.03;42.77;;;;;;;;;;4953662;28;20298;-81
2023/02/22 01:45:38;;;;;;;116.53;42.87;;;;;;;;;;4953070;28;20676;-81
2023/02/22 01:48:08;;;;;;;96.17;40.87;;;;;;;;;;4953816;29;20290;-81
2023/02/22 01:50:38;;;;;;;125.57;43.40;;;;;;;;;;4952337;28;20214;-81
2023/02/22 01:53:07;;;;;;;107.93;42.17;;;;;;;;;;4953375;28;20195;-81
2023/02/22 01:55:35;;;;;;;101.00;41.30;;;;;;;;;;4953424;29;20223;-81
2023/02/22 01:58:02;;;;;;;107.60;41.50;;;;;;;;;;4953408;28;20301;-81
2023/02/22 02:00:29;;;;;;;108.03;42.80;;;;;;;;;;4951908;28;20250;-81
2023/02/22 02:02:58;;;;;;;116.70;42.30;;;;;;;;;;4951409;29;20203;-82
2023/02/22 02:05:26;;;;;;;112.37;42.17;;;;;;;;;;4952981;29;20215;-81
2023/02/22 02:07:54;;;;;;;116.80;42.40;;;;;;;;;;4953191;29;20203;-82
2023/02/22 02:10:23;;;;;;;92.30;42.07;;;;;;;;;;4951813;28;20230;-81
2023/02/22 02:12:51;;;;;;;125.73;43.87;;;;;;;;;;4953023;28;20343;-81
2023/02/22 02:15:19;;;;;;;123.90;43.30;;;;;;;;;;4953113;29;20743;-82
2023/02/22 02:17:47;;;;;;;99.90;43.47;;;;;;;;;;4952873;29;20231;-82
2023/02/22 02:20:17;;;;;;;108.63;41.90;;;;;;;;;;4952103;28;20238;-81
2023/02/22 02:22:47;;;;;;;94.00;41.97;;;;;;;;;;4952947;28;20949;-81
2023/02/22 02:25:46;;;;;;;100.80;43.27;;;;;;;;;;4953194;29;20203;-81
2023/02/22 02:28:34;;;;;;;83.80;41.47;;;;;;;;;;4953073;28;20289;-82
2023/02/22 02:31:12;;;;;;;111.87;41.83;;;;;;;;;;4952156;29;20728;-81
2023/02/22 02:33:43;;;;;;;102.83;42.17;;;;;;;;;;4952731;28;20238;-82
2023/02/22 02:36:16;;;;;;;102.13;42.53;;;;;;;;;;4953205;29;20290;-81
2023/02/22 02:38:46;;;;;;;103.30;42.20;;;;;;;;;;4951601;29;20886;-82
2023/02/22 02:41:15;;;;;;;73.00;40.80;;;;;;;;;;4933435;29;20277;-81
2023/02/22 02:43:46;;;;;;;93.37;41.53;;;;;;;;;;4933848;29;20246;-81
2023/02/22 02:46:16;;;;;;;102.80;41.30;;;;;;;;;;4933559;29;20629;-81
2023/02/22 02:48:48;;;;;;;103.20;40.73;;;;;;;;;;4933912;29;20231;-81
2023/02/22 02:51:16;;;;;;;83.73;40.57;;;;;;;;;;4944102;28;20285;-81
2023/02/22 02:53:45;;;;;;;85.27;40.93;;;;;;;;;;4972185;28;20198;-81
2023/02/22 02:56:13;;;;;;;99.23;41.07;;;;;;;;;;4972167;28;20273;-81
2023/02/22 02:58:45;;;;;;;102.53;42.23;;;;;;;;;;4961161;28;20691;-81
2023/02/22 03:01:13;;;;;;;82.20;38.43;;;;;;;;;;4955933;29;20263;-81
2023/02/22 03:04:11;;;;;;;83.97;40.83;;;;;;;;;;4957050;29;20594;-81
2023/02/22 03:07:00;;;;;;;75.83;39.27;;;;;;;;;;4896984;29;20225;-80
2023/02/22 03:09:38;;;;;;;70.77;39.80;;;;;;;;;;4896231;29;20309;-79
2023/02/22 03:12:10;;;;;;;64.77;39.50;;;;;;;;;;4896736;29;20270;-81
2023/02/22 03:14:40;;;;;;;62.23;37.87;;;;;;;;;;4897110;29;20197;-80
2023/02/22 03:17:15;;;;;;;67.67;38.97;;;;;;;;;;4896124;29;20352;-81
2023/02/22 03:19:46;;;;;;;69.33;39.23;;;;;;;;;;4877960;29;20317;-81
2023/02/22 03:22:17;;;;;;;67.57;38.37;;;;;;;;;;4877629;29;20388;-81
2023/02/22 03:24:51;;;;;;;67.83;38.97;;;;;;;;;;4878109;29;20230;-82
2023/02/22 03:27:21;;;;;;;64.90;37.90;;;;;;;;;;4878103;29;20208;-81
2023/02/22 03:29:50;;;;;;;62.80;38.67;;;;;;;;;;4878108;29;20206;-80
2023/02/22 03:32:21;;;;;;;61.33;38.77;;;;;;;;;;4877410;29;20208;-81
2023/02/22 03:34:51;;;;;;;77.67;37.47;;;;;;;;;;4877632;29;20202;-81
2023/02/22 03:37:22;;;;;;;70.03;38.53;;;;;;;;;;4877981;29;20241;-81
2023/02/22 03:39:50;;;;;;;70.27;38.80;;;;;;;;;;4882372;29;20229;-81
2023/02/22 03:42:19;;;;;;;67.07;38.17;;;;;;;;;;4936669;29;20729;-81
2023/02/22 03:44:48;;;;;;;68.10;38.23;;;;;;;;;;4936682;29;20295;-81
2023/02/22 03:47:18;;;;;;;74.03;37.83;;;;;;;;;;4936503;29;20322;-81
2023/02/22 03:49:50;;;;;;;69.23;38.90;;;;;;;;;;4954763;28;20736;-81
2023/02/22 03:52:17;;;;;;;92.53;39.07;;;;;;;;;;4955503;28;20199;-81
2023/02/22 03:54:46;;;;;;;79.23;39.43;;;;;;;;;;4955343;28;20237;-81
2023/02/22 03:57:16;;;;;;;69.17;38.73;;;;;;;;;;4955755;28;20784;-81
2023/02/22 03:59:43;;;;;;;77.53;39.33;;;;;;;;;;4954907;29;20234;-80
2023/02/22 04:02:11;;;;;;;69.90;38.43;;;;;;;;;;4955498;28;20674;-81
2023/02/22 04:04:38;;;;;;;64.30;37.80;;;;;;;;;;4955173;28;20302;-81
2023/02/22 04:07:05;;;;;;;66.43;37.50;;;;;;;;;;4955724;29;20672;-81
2023/02/22 04:09:33;;;;;;;64.87;36.60;;;;;;;;;;4954319;28;20203;-81
2023/02/22 04:12:01;;;;;;;70.03;37.73;;;;;;;;;;4955261;28;20239;-81
2023/02/22 04:14:28;;;;;;;69.97;37.83;;;;;;;;;;4955567;29;20216;-81
2023/02/22 04:16:56;;;;;;;66.20;36.77;;;;;;;;;;4955554;29;20307;-81
2023/02/22 04:19:23;;;;;;;67.20;37.10;;;;;;;;;;4953600;28;20256;-82
2023/02/22 04:21:50;;;;;;;66.60;37.23;;;;;;;;;;4954736;29;20262;-81
2023/02/22 04:24:17;;;;;;;65.20;36.43;;;;;;;;;;4955405;29;20295;-81
2023/02/22 04:26:45;;;;;;;65.93;36.57;;;;;;;;;;4954900;29;20258;-81
2023/02/22 04:29:13;;;;;;;66.03;35.57;;;;;;;;;;4954334;29;20240;-81
2023/02/22 04:31:40;;;;;;;67.47;36.97;;;;;;;;;;4954739;28;20294;-81
2023/02/22 04:34:08;;;;;;;60.73;35.97;;;;;;;;;;4954504;29;20297;-81
2023/02/22 04:36:35;;;;;;;64.03;34.93;;;;;;;;;;4954747;28;20298;-81
2023/02/22 04:39:02;;;;;;;65.17;36.23;;;;;;;;;;4954531;28;20293;-81
2023/02/22 04:41:30;;;;;;;59.87;35.73;;;;;;;;;;4954752;29;20231;-81
2023/02/22 04:43:57;;;;;;;58.40;34.10;;;;;;;;;;4954494;29;20298;-81
2023/02/22 04:46:26;;;;;;;63.83;36.13;;;;;;;;;;4954439;29;20238;-81
2023/02/22 04:48:53;;;;;;;62.90;35.90;;;;;;;;;;4953472;29;20681;-81
2023/02/22 04:51:20;;;;;;;63.87;35.60;;;;;;;;;;4954910;29;20310;-81
2023/02/22 04:53:47;;;;;;;59.47;34.87;;;;;;;;;;4954348;28;20287;-81
2023/02/22 04:56:14;;;;;;;62.27;34.63;;;;;;;;;;4954427;29;20199;-81
2023/02/22 04:58:42;;;;;;;60.03;34.67;;;;;;;;;;4953582;29;20936;-81
2023/02/22 05:01:09;;;;;;;60.50;35.17;;;;;;;;;;4954606;29;20337;-81
2023/02/22 05:03:39;;;;;;;61.87;34.67;;;;;;;;;;4953777;29;20262;-81
2023/02/22 05:06:07;;;;;;;64.97;34.87;;;;;;;;;;4954159;29;20258;-81
2023/02/22 05:08:34;;;;;;;62.77;36.40;;;;;;;;;;4952987;28;20297;-82
2023/02/22 05:11:01;;;;;;;64.97;36.13;;;;;;;;;;4954153;29;20750;-83
2023/02/22 05:13:28;;;;;;;67.90;35.73;;;;;;;;;;4953676;28;20238;-81
2023/02/22 05:15:55;;;;;;;69.30;37.17;;;;;;;;;;4953879;29;20228;-81
2023/02/22 05:18:22;;;;;;;74.00;38.63;;;;;;;;;;4951654;28;20294;-82
2023/02/22 05:20:51;;;;;;;71.80;38.03;;;;;;;;;;4953645;28;20239;-81
2023/02/22 05:23:18;;;;;;;65.77;36.20;;;;;;;;;;4934727;29;20199;-81
2023/02/22 05:25:45;;;;;;;72.90;38.67;;;;;;;;;;4937874;29;20302;-81
2023/02/22 05:28:14;;;;;;;70.97;37.27;;;;;;;;;;4953207;29;20210;-82
2023/02/22 05:30:41;;;;;;;66.00;36.10;;;;;;;;;;4953431;29;20231;-81
2023/02/22 05:33:08;;;;;;;73.57;36.23;;;;;;;;;;4953920;29;20232;-81
2023/02/22 05:35:37;;;;;;;68.43;36.73;;;;;;;;;;4953532;29;20739;-82
2023/02/22 05:38:05;;;;;;;73.30;38.73;;;;;;;;;;4953352;28;20237;-82
2023/02/22 05:40:33;;;;;;;67.87;37.03;;;;;;;;;;4953538;29;20801;-81
2023/02/22 05:43:01;;;;;;;67.50;37.67;;;;;;;;;;4953518;29;20235;-82
2023/02/22 05:45:29;;;;;;;67.03;35.13;;;;;;;;;;4953396;28;20199;-81
2023/02/22 05:47:57;;;;;;;65.30;35.50;;;;;;;;;;4952637;28;20651;-81
2023/02/22 05:50:24;;;;;;;65.40;36.50;;;;;;;;;;4953410;29;20646;-81
2023/02/22 05:52:51;;;;;;;64.90;35.17;;;;;;;;;;4953430;29;20240;-81
2023/02/22 05:55:21;;;;;;;62.70;35.63;;;;;;;;;;4953021;28;20220;-81
2023/02/22 05:57:48;;;;;;;69.00;37.00;;;;;;;;;;4953091;29;20192;-81
2023/02/22 06:00:17;;;;;;;71.27;36.90;;;;;;;;;;4953293;28;20205;-81
2023/02/22 06:02:44;;;;;;;62.93;34.77;;;;;;;;;;4952815;28;20254;-81
2023/02/22 06:05:11;;;;;;;59.07;34.90;;;;;;;;;;4953279;29;20258;-82
2023/02/22 06:07:38;;;;;;;59.50;34.97;;;;;;;;;;4953022;29;20249;-81
2023/02/22 06:10:06;;;;;;;62.37;35.97;;;;;;;;;;4952529;29;20297;-80
2023/02/22 06:12:35;;;;;;;59.60;34.57;;;;;;;;;;4953363;28;20682;-82
2023/02/22 06:15:02;;;;;;;61.30;35.50;;;;;;;;;;4952805;29;20203;-82
2023/02/22 06:17:29;;;;;;;58.07;34.83;;;;;;;;;;4952715;29;20206;-81
2023/02/22 06:19:57;;;;;;;56.77;34.53;;;;;;;;;;4952487;29;20205;-82
2023/02/22 06:22:24;;;;;;;58.17;35.33;;;;;;;;;;4953264;29;20231;-81
2023/02/22 06:24:51;;;;;;;61.83;35.00;;;;;;;;;;4953291;28;20292;-82
2023/02/22 06:27:18;;;;;;;61.60;36.67;;;;;;;;;;4952933;29;20297;-81
2023/02/22 06:29:47;;;;;;;60.93;35.77;;;;;;;;;;4951647;28;20313;-81
2023/02/22 06:32:15;;;;;;;59.70;35.50;;;;;;;;;;4953981;28;20289;-82
2023/02/22 06:34:42;;;;;;;59.47;36.07;;;;;;;;;;4957098;28;20214;-82
2023/02/22 06:37:09;;;;;;;61.60;36.33;;;;;;;;;;4956521;29;20294;-82
2023/02/22 06:39:36;;;;;;;63.67;35.80;;;;;;;;;;4956936;29;20289;-82
2023/02/22 06:42:04;;;;;;;59.77;35.77;;;;;;;;;;4956542;29;20325;-82
2023/02/22 06:44:31;;;;;;;65.10;36.80;;;;;;;;;;4957031;28;20584;-82
2023/02/22 06:47:00;;;;;;;64.07;36.60;;;;;;;;;;4955992;29;20268;-82
2023/02/22 06:49:27;;;;;;;64.07;36.03;;;;;;;;;;4956469;29;20675;-82
2023/02/22 06:51:55;;;;;;;55.13;34.20;;;;;;;;;;4956615;29;20732;-82
2023/02/22 06:54:22;;;;;;;59.40;34.20;;;;;;;;;;4956379;28;20315;-82
2023/02/22 06:56:49;;;;;;;63.20;35.93;;;;;;;;;;4956182;29;20235;-81
2023/02/22 06:59:17;;;;;;;59.07;36.23;;;;;;;;;;4956254;29;20226;-81
2023/02/22 07:01:44;;;;;;;61.10;35.97;;;;;;;;;;4956198;29;20843;-82
2023/02/22 07:04:14;;;;;;;65.93;36.57;;;;;;;;;;4956802;29;20226;-82
2023/02/22 07:06:45;;;;;;;65.67;36.73;;;;;;;;;;4955970;29;20229;-81
2023/02/22 07:09:13;;;;;;;64.93;37.27;;;;;;;;;;4955881;29;20657;-82
2023/02/22 07:11:40;;;;;;;64.63;37.93;;;;;;;;;;4956192;28;20235;-82
2023/02/22 07:14:07;;;;;;;67.80;37.97;;;;;;;;;;4956008;28;20225;-81
2023/02/22 07:16:34;;;;;;;66.27;37.83;;;;;;;;;;4954938;28;20880;-82
2023/02/22 07:19:01;;;;;;;67.63;37.50;;;;;;;;;;4948319;28;20282;-81
2023/02/22 07:21:30;;;;;;;62.07;35.50;;;;;;;;;;4955927;29;20357;-82
2023/02/22 07:23:58;;;;;;;66.80;38.27;;;;;;;;;;4955805;29;20291;-82
2023/02/22 07:26:26;;;;;;;64.60;37.30;;;;;;;;;;4955617;29;20212;-81
2023/02/22 07:28:54;;;;;;;68.13;37.83;;;;;;;;;;4955852;29;20289;-82
2023/02/22 07:31:21;;;;;;;64.37;35.20;;;;;;;;;;4955404;28;20308;-82
2023/02/22 07:33:48;;;;;;;56.80;35.17;;;;;;;;;;4956287;29;20678;-82
2023/02/22 07:36:17;;;;;;;62.03;35.73;;;;;;;;;;4955744;29;20297;-81
2023/02/22 07:38:45;;;;;;;60.33;35.17;;;;;;;;;;4954898;29;20209;-82
2023/02/22 07:41:12;;;;;;;72.67;37.07;;;;;;;;;;4955303;29;20246;-82
2023/02/22 07:43:40;;;;;;;64.17;35.83;;;;;;;;;;4955104;28;20243;-81
2023/02/22 07:46:07;;;;;;;58.47;34.40;;;;;;;;;;4955836;29;20265;-82
2023/02/22 07:48:34;;;;;;;67.63;39.37;;;;;;;;;;4954751;28;20256;-82
2023/02/22 07:51:01;;;;;;;75.33;40.87;;;;;;;;;;4955596;29;20674;-82
2023/02/22 07:53:29;;;;;;;66.33;38.97;;;;;;;;;;4955627;28;20227;-82
2023/02/22 07:55:59;;;;;;;65.27;38.33;;;;;;;;;;4955327;29;20294;-82
2023/02/22 07:58:27;;;;;;;73.73;43.27;;;;;;;;;;4954742;29;20234;-81
2023/02/22 08:00:54;;;;;;;81.10;49.03;;;;;;;;;;4955868;29;20260;-82
2023/02/22 08:03:22;;;;;;;90.37;52.57;;;;;;;;;;4954221;28;21088;-81
2023/02/22 08:05:51;;;;;;;80.30;44.87;;;;;;;;;;4955077;29;20297;-81
2023/02/22 08:08:18;;;;;;;72.13;42.57;;;;;;;;;;4954622;29;20203;-81
2023/02/22 08:10:46;;;;;;;65.07;40.27;;;;;;;;;;4954954;28;20638;-82
2023/02/22 08:13:14;;;;;;;61.97;36.07;;;;;;;;;;4955718;28;20585;-82
2023/02/22 08:15:43;;;;;;;59.70;34.70;;;;;;;;;;4955403;29;20260;-82
2023/02/22 08:18:11;;;;;;;56.50;33.43;;;;;;;;;;4954224;28;20262;-82
2023/02/22 08:20:39;;;;;;;59.07;34.23;;;;;;;;;;4955125;29;20299;-78
2023/02/22 08:23:07;;;;;;;66.17;35.60;;;;;;;;;;4955339;28;20328;-83
2023/02/22 08:25:34;;;;;;;63.60;35.67;;;;;;;;;;4955099;29;20226;-83
2023/02/22 08:28:03;;;;;;;64.27;35.47;;;;;;;;;;4954092;29;20243;-83
2023/02/22 08:30:33;;;;;;;60.57;34.80;;;;;;;;;;4954778;29;20217;-82
2023/02/22 08:33:01;;;;;;;57.30;32.87;;;;;;;;;;4954996;29;20247;-83
2023/02/22 08:35:29;;;;;;;57.40;34.30;;;;;;;;;;4954886;29;20211;-82
2023/02/22 08:37:57;;;;;;;55.87;31.23;;;;;;;;;;4954068;29;20720;-83
2023/02/22 08:40:26;;;;;;;56.50;31.67;;;;;;;;;;4954246;29;20240;-82
2023/02/22 08:42:53;;;;;;;57.50;31.00;;;;;;;;;;4954628;28;20236;-81
2023/02/22 08:45:21;;;;;;;53.87;30.30;;;;;;;;;;4955061;28;20230;-77
2023/02/22 08:47:50;;;;;;;56.27;31.13;;;;;;;;;;4953596;28;20333;-83
2023/02/22 08:50:19;;;;;;;53.70;31.03;;;;;;;;;;4935422;29;20232;-82
2023/02/22 08:52:46;;;;;;;53.00;30.30;;;;;;;;;;4935287;29;20299;-82
2023/02/22 08:55:14;;;;;;;57.70;31.83;;;;;;;;;;4934069;29;20633;-82
2023/02/22 08:57:41;;;;;;;62.13;34.37;;;;;;;;;;4943897;29;20250;-82
2023/02/22 09:00:08;;;;;;;54.93;32.00;;;;;;;;;;4954208;28;20674;-82
2023/02/22 09:02:36;;;;;;;50.87;30.10;;;;;;;;;;4954272;29;20238;-83
2023/02/22 09:05:05;;;;;;;52.50;29.37;;;;;;;;;;4949681;28;20239;-81
2023/02/22 09:07:33;;;;;;;53.70;30.60;;;;;;;;;;4948833;28;20221;-82
2023/02/22 09:10:00;;;;;;;54.83;31.77;;;;;;;;;;4950225;28;20301;-81
2023/02/22 09:12:27;;;;;;;52.87;30.50;;;;;;;;;;4954561;28;20651;-81
2023/02/22 09:14:54;;;;;;;53.60;29.50;;;;;;;;;;4953385;28;20290;-82
2023/02/22 09:17:21;;;;;;;55.73;30.93;;;;;;;;;;4947498;28;20233;-80
2023/02/22 09:19:49;;;;;;;48.23;28.57;;;;;;;;;;4953742;28;20305;-82
2023/02/22 09:22:17;;;;;;;45.40;28.67;;;;;;;;;;4946137;28;20322;-83
2023/02/22 09:24:44;;;;;;;45.43;27.70;;;;;;;;;;4954888;28;20225;-82
2023/02/22 09:27:12;;;;;;;50.93;29.40;;;;;;;;;;4952862;28;20245;-81
2023/02/22 09:29:39;;;;;;;46.73;27.70;;;;;;;;;;4953655;28;20280;-82
2023/02/22 09:32:06;;;;;;;44.97;26.70;;;;;;;;;;4953516;28;20247;-82
2023/02/22 09:34:34;;;;;;;46.37;26.87;;;;;;;;;;4962145;28;20241;-78
2023/02/22 09:37:01;;;;;;;44.80;26.07;;;;;;;;;;4963314;28;20573;-82
2023/02/22 09:39:34;;;;;;;44.13;26.70;;;;;;;;;;4960038;28;20206;-81
2023/02/22 09:42:04;;;;;;;40.87;25.80;;;;;;;;;;4954201;28;20242;-85
2023/02/22 09:44:36;;;;;;;44.87;26.73;;;;;;;;;;4952102;28;20200;-81
2023/02/22 09:47:09;;;;;;;41.93;25.73;;;;;;;;;;4950713;28;20755;-82
2023/02/22 09:49:38;;;;;;;43.83;27.47;;;;;;;;;;4958034;28;20211;-80
2023/02/22 09:52:08;;;;;;;44.37;26.17;;;;;;;;;;4948641;28;20219;-80
2023/02/22 09:54:42;;;;;;;43.37;26.37;;;;;;;;;;4945867;28;20299;-80
2023/02/22 09:57:11;;;;;;;42.23;26.00;;;;;;;;;;4950222;28;20209;-80
2023/02/22 09:59:41;;;;;;;41.80;26.57;;;;;;;;;;4960552;28;20226;-80
2023/02/22 10:02:18;;;;;;;44.37;28.00;;;;;;;;;;4955879;28;20714;-78
2023/02/22 10:04:48;;;;;;;44.87;29.60;;;;;;;;;;4948745;28;20202;-77
2023/02/22 10:07:21;;;;;;;46.23;30.03;;;;;;;;;;4949760;28;20301;-78
2023/02/22 10:09:50;;;;;;;47.63;30.57;;;;;;;;;;4950550;28;21593;-78
2023/02/22 10:12:23;;;;;;;42.50;29.07;;;;;;;;;;4949111;28;20286;-78
2023/02/22 10:15:06;;;;;;;43.23;27.80;;;;;;;;;;4942918;28;20691;-78
2023/02/22 10:17:36;;;;;;;41.07;25.83;;;;;;;;;;4955494;28;20286;-78
2023/02/22 10:20:08;;;;;;;38.27;24.43;;;;;;;;;;4948492;28;20273;-79
2023/02/22 10:22:45;;;;;;;37.27;24.63;;;;;;;;;;4943048;28;20249;-79
2023/02/22 10:25:16;;;;;;;37.87;24.53;;;;;;;;;;4955027;28;20226;-78
2023/02/22 10:27:47;;;;;;;34.73;23.77;;;;;;;;;;4945716;28;20218;-78
2023/02/22 10:30:18;;;;;;;33.33;22.23;;;;;;;;;;4947368;28;20314;-77
2023/02/22 10:32:46;;;;;;;30.70;22.07;;;;;;;;;;4955775;28;20290;-78
2023/02/22 10:35:18;;;;;;;28.47;20.80;;;;;;;;;;4952434;28;20206;-78
2023/02/22 10:37:47;;;;;;;27.73;19.57;;;;;;;;;;4944024;28;20287;-81
2023/02/22 10:40:17;;;;;;;29.57;19.07;;;;;;;;;;4946768;28;20729;-81
2023/02/22 10:42:46;;;;;;;26.40;19.83;;;;;;;;;;4957246;28;20325;-84
2023/02/22 10:45:21;;;;;;;27.90;18.70;;;;;;;;;;4949924;28;20196;-82
2023/02/22 10:47:48;;;;;;;29.63;18.87;;;;;;;;;;4946250;28;20238;-82
2023/02/22 10:50:16;;;;;;;28.67;18.83;;;;;;;;;;4945671;28;20618;-81
2023/02/22 10:52:43;;;;;;;30.03;20.17;;;;;;;;;;4947317;28;20232;-82
2023/02/22 10:55:13;;;;;;;30.67;20.30;;;;;;;;;;4954007;28;20328;-82
2023/02/22 10:57:42;;;;;;;28.93;20.03;;;;;;;;;;4950706;28;20700;-81
2023/02/22 11:00:19;;;;;;;30.60;19.10;;;;;;;;;;4949273;28;20672;-82
2023/02/22 11:02:51;;;;;;;29.67;19.80;;;;;;;;;;4947161;28;20723;-81
2023/02/22 11:05:27;;;;;;;29.83;19.43;;;;;;;;;;4937619;28;20222;-82
2023/02/22 11:08:14;;;;;;;28.40;18.97;;;;;;;;;;4946527;28;20207;-83
2023/02/22 11:10:42;;;;;;;29.03;18.87;;;;;;;;;;4940268;28;20195;-81
2023/02/22 11:13:19;;;;;;;30.93;19.83;;;;;;;;;;4936569;28;20207;-82
2023/02/22 11:15:46;;;;;;;30.50;19.13;;;;;;;;;;4944761;28;20214;-82
2023/02/22 11:18:22;;;;;;;31.23;20.00;;;;;;;;;;4945412;28;20198;-78
2023/02/22 11:20:50;;;;;;;29.93;19.73;;;;;;;;;;4939648;28;20215;-83
2023/02/22 11:23:23;;;;;;;33.60;21.23;;;;;;;;;;4949671;28;20228;-83
2023/02/22 11:25:51;;;;;;;28.93;19.80;;;;;;;;;;4947274;29;20573;-82
2023/02/22 11:28:29;;;;;;;29.23;19.67;;;;;;;;;;4948737;28;20937;-81
2023/02/22 11:30:58;;;;;;;29.47;19.17;;;;;;;;;;4949138;29;20203;-77
2023/02/22 11:33:28;;;;;;;27.80;18.70;;;;;;;;;;4946715;29;20652;-78
2023/02/22 11:35:56;;;;;;;29.60;18.60;;;;;;;;;;4954948;28;20206;-82
2023/02/22 11:38:24;;;;;;;24.77;16.40;;;;;;;;;;4950238;29;20255;-82
2023/02/22 11:41:13;;;;;;;26.20;17.33;;;;;;;;;;4937755;29;20246;-83
2023/02/22 11:43:42;;;;;;;25.93;18.17;;;;;;;;;;4936849;29;20235;-81
2023/02/22 11:46:12;;;;;;;25.53;16.93;;;;;;;;;;4950395;29;20657;-80
2023/02/22 11:48:43;;;;;;;27.67;17.10;;;;;;;;;;4954630;28;20231;-82
2023/02/22 11:51:17;;;;;;;23.77;17.13;;;;;;;;;;4957807;28;20207;-82
2023/02/22 11:53:52;;;;;;;27.37;17.90;;;;;;;;;;4955877;29;20195;-83
2023/02/22 11:56:22;;;;;;;24.67;17.30;;;;;;;;;;4956534;29;20249;-83
2023/02/22 11:58:56;;;;;;;27.63;16.87;;;;;;;;;;4955117;29;20223;-83
2023/02/22 12:01:27;;;;;;;26.80;18.20;;;;;;;;;;4958247;29;20210;-82
2023/02/22 12:04:04;;;;;;;27.73;17.17;;;;;;;;;;4956451;29;20231;-84
2023/02/22 12:06:39;;;;;;;24.73;16.43;;;;;;;;;;4961340;28;20225;-83
2023/02/22 12:09:12;;;;;;;24.73;16.17;;;;;;;;;;4935964;29;20263;-83
2023/02/22 12:11:43;;;;;;;23.47;15.03;;;;;;;;;;4939968;28;20225;-79
2023/02/22 12:14:16;;;;;;;21.80;14.23;;;;;;;;;;4954823;28;20209;-79
2023/02/22 12:16:49;;;;;;;24.03;14.63;;;;;;;;;;4950951;28;20203;-79
2023/02/22 12:19:23;;;;;;;23.87;15.10;;;;;;;;;;4942410;28;20246;-81
2023/02/22 12:22:03;;;;;;;23.27;15.17;;;;;;;;;;4949129;29;20606;-83
2023/02/22 12:24:34;;;;;;;22.63;16.00;;;;;;;;;;4942314;29;20322;-80
2023/02/22 12:27:04;;;;;;;20.30;15.10;;;;;;;;;;4937177;29;20231;-82
2023/02/22 12:29:36;;;;;;;20.63;13.03;;;;;;;;;;4942676;28;20664;-82
2023/02/22 12:32:05;;;;;;;14.77;10.07;;;;;;;;;;4954014;29;20211;-81
2023/02/22 12:34:36;;;;;;;14.97;9.77;;;;;;;;;;4949310;28;20290;-81
2023/02/22 12:37:06;;;;;;;18.90;10.80;;;;;;;;;;4928021;28;20686;-78
2023/02/22 12:39:38;;;;;;;14.70;10.23;;;;;;;;;;4953509;28;20195;-77
2023/02/22 12:42:08;;;;;;;18.43;10.30;;;;;;;;;;4953767;28;20306;-78
2023/02/22 12:44:39;;;;;;;12.77;8.60;;;;;;;;;;4953653;28;20250;-78
2023/02/22 12:47:08;;;;;;;12.00;8.03;;;;;;;;;;4946998;28;20235;-78
2023/02/22 12:49:39;;;;;;;14.90;8.30;;;;;;;;;;4949737;28;20211;-78
2023/02/22 12:52:11;;;;;;;11.90;8.20;;;;;;;;;;4951866;28;20706;-78
2023/02/22 12:54:42;;;;;;;11.17;7.73;;;;;;;;;;4953138;28;20293;-78
2023/02/22 12:57:12;;;;;;;12.73;7.87;;;;;;;;;;4951506;28;20288;-78
2023/02/22 12:59:44;;;;;;;12.03;8.17;;;;;;;;;;4959984;28;20198;-78
2023/02/22 13:02:14;;;;;;;12.10;8.83;;;;;;;;;;4950701;28;20285;-78
2023/02/22 13:04:41;;;;;;;11.20;8.83;;;;;;;;;;4949141;28;20258;-78
2023/02/22 13:07:12;;;;;;;10.50;7.47;;;;;;;;;;4960155;28;20260;-78
2023/02/22 13:10:00;;;;;;;9.23;7.53;;;;;;;;;;4951755;28;20294;-78
2023/02/22 13:12:32;;;;;;;9.47;7.40;;;;;;;;;;4948626;28;20239;-79
2023/02/22 13:15:04;;;;;;;7.50;6.00;;;;;;;;;;4948803;28;20199;-78
2023/02/22 13:17:37;;;;;;;5.83;4.13;;;;;;;;;;4954543;28;20245;-78
2023/02/22 13:20:08;;;;;;;3.60;2.43;;;;;;;;;;4966824;28;20206;-78
2023/02/22 13:22:37;;;;;;;4.07;1.80;;;;;;;;;;4957908;28;20227;-78
2023/02/22 13:25:10;;;;;;;3.20;1.80;;;;;;;;;;4952757;28;21112;-78
2023/02/22 13:27:41;;;;;;;5.40;2.27;;;;;;;;;;4945544;28;20285;-78
2023/02/22 13:30:15;;;;;;;3.77;1.97;;;;;;;;;;4952699;28;20206;-78
2023/02/22 13:32:50;;;;;;;2.33;1.40;;;;;;;;;;4963653;28;20309;-78
2023/02/22 13:35:28;;;;;;;4.03;1.77;;;;;;;;;;4959845;28;20794;-79
2023/02/22 13:38:16;;;;;;;3.23;1.40;;;;;;;;;;4948810;29;20271;-76
2023/02/22 13:40:51;;;;;;;5.60;1.30;;;;;;;;;;4942625;28;20250;-78
2023/02/22 13:43:31;;;;;;;4.57;1.30;;;;;;;;;;4941128;28;20738;-78
2023/02/22 13:46:18;;;;;;;3.27;1.10;;;;;;;;;;4947460;29;20269;-80
2023/02/22 13:49:00;;;;;;;4.97;1.40;;;;;;;;;;4943487;29;20283;-78
2023/02/22 13:51:44;;;;;;;5.23;1.30;;;;;;;;;;4943148;29;20230;-78
2023/02/22 13:54:16;;;;;;;4.27;1.10;;;;;;;;;;4942061;29;20823;-78
2023/02/22 13:56:43;;;;;;;4.43;1.20;;;;;;;;;;4943633;29;20728;-78
2023/02/22 13:59:23;;;;;;;5.27;1.43;;;;;;;;;;4943135;28;20223;-79
2023/02/22 14:01:53;;;;;;;6.80;1.50;;;;;;;;;;4944168;29;20232;-78
2023/02/22 14:04:36;;;;;;;5.17;1.50;;;;;;;;;;4942189;28;20235;-79
2023/02/22 14:07:05;;;;;;;7.17;1.67;;;;;;;;;;4939445;28;20290;-79
2023/02/22 14:09:44;;;;;;;8.43;1.80;;;;;;;;;;4943090;29;20196;-77
2023/02/22 14:12:26;;;;;;;5.03;1.63;;;;;;;;;;4942718;28;20652;-79
2023/02/22 14:15:13;;;;;;;5.47;1.27;;;;;;;;;;4943207;29;20291;-78
2023/02/22 14:17:43;;;;;;;4.07;1.37;;;;;;;;;;4941897;28;20199;-79
2023/02/22 14:20:31;;;;;;;5.13;1.20;;;;;;;;;;4943031;29;20200;-78
2023/02/22 14:22:59;;;;;;;5.30;1.43;;;;;;;;;;4951752;29;20199;-78
2023/02/22 14:25:32;;;;;;;5.90;1.30;;;;;;;;;;4949708;29;20254;-77
2023/02/22 14:28:01;;;;;;;4.87;1.40;;;;;;;;;;4947652;28;20739;-79
2023/02/22 14:30:29;;;;;;;9.37;1.70;;;;;;;;;;4952993;29;20199;-79
2023/02/22 14:32:59;;;;;;;8.30;1.83;;;;;;;;;;4953153;28;20238;-79
2023/02/22 14:35:28;;;;;;;5.60;1.63;;;;;;;;;;4952407;29;20207;-80